Time;durP1;ratioP1;P1;durP2;ratioP2;P2;SDS_P1;SDS_P2;PMS_P1;PMS_P2;Temp;Humidity;BMP_temperature;BMP_pressure;BME280_temperature;BME280_humidity;BME280_pressure;Samples;Min_cycle;Max_cycle;Signal;HPM_P1;HPM_P2
2021/07/22 00:00:24;;;;;;;;;;;;;;;19.58;nan;99909.50;4826267;29;19980;-87
2021/07/22 00:02:52;;;;;;;;;;;;;;;19.54;nan;99906.03;4826739;29;20377;-87
2021/07/22 00:05:20;;;;;;;;;;;;;;;19.50;nan;99911.03;4842514;29;19996;-87
2021/07/22 00:07:47;;;;;;;;;;;;;;;19.49;nan;99912.28;4842549;29;19928;-87
2021/07/22 00:10:15;;;;;;;;;;;;;;;19.06;nan;99906.63;4811122;29;20416;-87
2021/07/22 00:12:43;;;;;;;;;;;;;;;19.07;nan;99908.19;4841469;29;20291;-87
2021/07/22 00:15:11;;;;;;;;;;;;;;;19.19;nan;99910.16;4826461;29;19929;-87
2021/07/22 00:17:38;;;;;;;;;;;;;;;19.29;nan;99911.88;4826092;29;19928;-87
2021/07/22 00:20:06;;;;;;;;;;;;;;;19.36;nan;99900.25;4842513;29;19929;-87
2021/07/22 00:22:37;;;;;;;;;;;;;;;19.22;nan;99897.91;4841288;29;19929;-87
2021/07/22 00:25:05;;;;;;;;;;;;;;;19.25;nan;99908.31;4842840;29;19929;-87
2021/07/22 00:27:32;;;;;;;;;;;;;;;19.25;nan;99908.31;4841436;29;20452;-87
2021/07/22 00:29:59;;;;;;;;;;;;;;;18.98;nan;99902.47;4811132;29;19928;-87
2021/07/22 00:32:29;;;;;;;;;;;;;;;18.93;nan;99900.22;4813639;29;20002;-86
2021/07/22 00:34:56;;;;;;;;;;;;;;;18.94;nan;99903.84;4844480;29;19935;-87
2021/07/22 00:37:24;;;;;;;;;;;;;;;18.93;nan;99900.22;4844677;29;20353;-87
2021/07/22 00:39:51;;;;;;;;;;;;;;;18.95;nan;99909.06;4844629;29;19932;-87
2021/07/22 00:42:18;;;;;;;;;;;;;;;18.95;nan;99909.06;4844892;29;20338;-87
2021/07/22 00:44:45;;;;;;;;;;;;;;;18.94;nan;99910.31;4829127;29;19929;-87
2021/07/22 00:47:15;;;;;;;;;;;;;;;18.95;nan;99909.06;4845516;29;20308;-87
2021/07/22 00:49:46;;;;;;;;;;;;;;;18.56;nan;99914.53;4828616;29;20273;-87
2021/07/22 00:52:14;;;;;;;;;;;;;;;18.64;nan;99915.88;4828968;29;19934;-87
2021/07/22 00:54:41;;;;;;;;;;;;;;;18.84;nan;99907.88;4844473;29;19938;-87
2021/07/22 00:57:09;;;;;;;;;;;;;;;18.80;nan;99902.31;4844260;29;20400;-87
2021/07/22 00:59:39;;;;;;;;;;;;;;;18.84;nan;99905.81;4844398;29;20396;-87
2021/07/22 01:02:07;;;;;;;;;;;;;;;18.79;nan;99899.94;4844265;29;20385;-87
2021/07/22 01:04:35;;;;;;;;;;;;;;;18.13;nan;99912.31;4843970;29;19929;-87
2021/07/22 01:07:02;;;;;;;;;;;;;;;17.78;nan;99911.44;4813943;29;19929;-88
2021/07/22 01:09:33;;;;;;;;;;;;;;;18.17;nan;99924.31;4829272;29;19928;-87
2021/07/22 01:12:00;;;;;;;;;;;;;;;18.43;nan;99917.41;4844268;29;19928;-87
2021/07/22 01:14:29;;;;;;;;;;;;;;;18.49;nan;99915.56;4844056;29;19928;-87
2021/07/22 01:17:08;;;;;;;;;;;;;;;18.56;nan;99912.50;4842927;29;19935;-87
2021/07/22 01:19:37;;;;;;;;;;;;;;;18.61;nan;99903.44;4828499;29;19934;-87
2021/07/22 01:22:04;;;;;;;;;;;;;;;18.68;nan;99908.81;4828751;29;19929;-86
2021/07/22 01:24:32;;;;;;;;;;;;;;;18.77;nan;99903.25;4843911;29;19933;-87
2021/07/22 01:27:02;;;;;;;;;;;;;;;18.78;nan;99904.03;4843848;29;19933;-87
2021/07/22 01:29:50;;;;;;;;;;;;;;;18.70;nan;99899.88;4844531;29;19935;-87
2021/07/22 01:32:18;;;;;;;;;;;;;;;18.59;nan;99900.25;4816780;29;19933;-87
2021/07/22 01:34:49;;;;;;;;;;;;;;;18.55;nan;99899.59;4840932;29;20389;-87
2021/07/22 01:37:21;;;;;;;;;;;;;;;18.64;nan;99899.69;4843738;29;20392;-87
2021/07/22 01:39:48;;;;;;;;;;;;;;;18.66;nan;99893.56;4844784;29;19935;-87
2021/07/22 01:42:15;;;;;;;;;;;;;;;18.52;nan;99892.03;4828464;29;19928;-87
2021/07/22 01:44:46;;;;;;;;;;;;;;;18.11;nan;99895.03;4812681;29;19929;-87
2021/07/22 01:47:14;;;;;;;;;;;;;;;18.21;nan;99899.53;4831762;29;20304;-88
2021/07/22 01:49:44;;;;;;;;;;;;;;;18.37;nan;99895.75;4828143;29;19935;-88
2021/07/22 01:52:12;;;;;;;;;;;;;;;18.46;nan;99898.72;4816038;29;19936;-87
2021/07/22 01:54:43;;;;;;;;;;;;;;;18.48;nan;99893.41;4837125;29;19929;-88
2021/07/22 01:57:12;;;;;;;;;;;;;;;18.35;nan;99886.94;4843075;29;19939;-87
2021/07/22 01:59:43;;;;;;;;;;;;;;;18.33;nan;99889.41;4843377;29;19935;-87
2021/07/22 02:02:11;;;;;;;;;;;;;;;18.25;nan;99893.75;4843954;29;19928;-87
2021/07/22 02:04:39;;;;;;;;;;;;;;;18.23;nan;99884.94;4843255;29;19928;-88
2021/07/22 02:07:09;;;;;;;;;;;;;;;18.20;nan;99892.28;4827475;29;20444;-87
2021/07/22 02:09:43;;;;;;;;;;;;;;;18.26;nan;99884.81;4828034;29;19932;-88
2021/07/22 02:12:11;;;;;;;;;;;;;;;18.19;nan;99878.59;4812046;29;19936;-87
2021/07/22 02:14:42;;;;;;;;;;;;;;;18.13;nan;99886.84;4843673;29;19933;-87
2021/07/22 02:17:10;;;;;;;;;;;;;;;18.14;nan;99888.47;4827444;29;20292;-87
2021/07/22 02:19:37;;;;;;;;;;;;;;;17.84;nan;99878.53;4842885;29;19933;-87
2021/07/22 02:22:08;;;;;;;;;;;;;;;17.99;nan;99887.34;4842951;29;19935;-87
2021/07/22 02:24:42;;;;;;;;;;;;;;;17.86;nan;99880.91;4827860;29;19965;-87
2021/07/22 02:27:29;;;;;;;;;;;;;;;17.99;nan;99885.28;4824911;29;19936;-87
2021/07/22 02:29:58;;;;;;;;;;;;;;;18.01;nan;99884.84;4842609;29;19944;-87
2021/07/22 02:32:25;;;;;;;;;;;;;;;18.05;nan;99877.03;4804421;29;19935;-87
2021/07/22 02:34:53;;;;;;;;;;;;;;;18.02;nan;99870.25;4842504;29;19951;-88
2021/07/22 02:37:41;;;;;;;;;;;;;;;18.00;nan;99877.59;4827483;29;19935;-87
2021/07/22 02:40:13;;;;;;;;;;;;;;;17.99;nan;99870.38;4842482;29;19929;-87
2021/07/22 02:42:40;;;;;;;;;;;;;;;17.92;nan;99876.25;4827350;29;19929;-87
2021/07/22 02:45:14;;;;;;;;;;;;;;;17.76;nan;99879.22;4842323;29;19932;-87
2021/07/22 02:47:43;;;;;;;;;;;;;;;17.59;nan;99875.72;4842031;29;19936;-87
2021/07/22 02:50:11;;;;;;;;;;;;;;;17.42;nan;99879.03;4827393;29;19940;-88
2021/07/22 02:52:42;;;;;;;;;;;;;;;17.55;nan;99879.88;4842362;29;19935;-87
2021/07/22 02:55:11;;;;;;;;;;;;;;;17.53;nan;99876.72;4826053;29;20014;-87
2021/07/22 02:57:39;;;;;;;;;;;;;;;17.67;nan;99877.06;4827236;29;19929;-88
2021/07/22 03:00:07;;;;;;;;;;;;;;;17.61;nan;99878.09;4826652;29;19932;-88
2021/07/22 03:02:35;;;;;;;;;;;;;;;17.73;nan;99880.13;4811843;29;19928;-88
2021/07/22 03:05:04;;;;;;;;;;;;;;;17.74;nan;99871.19;4841784;29;19928;-87
2021/07/22 03:07:33;;;;;;;;;;;;;;;17.76;nan;99867.91;4825908;29;19934;-87
2021/07/22 03:10:01;;;;;;;;;;;;;;;17.76;nan;99865.88;4827362;29;19935;-87
2021/07/22 03:12:29;;;;;;;;;;;;;;;17.73;nan;99863.16;4817250;29;19935;-88
2021/07/22 03:14:59;;;;;;;;;;;;;;;17.65;nan;99864.63;4811918;29;20344;-87
2021/07/22 03:17:28;;;;;;;;;;;;;;;17.69;nan;99870.97;4828838;29;19929;-88
2021/07/22 03:19:59;;;;;;;;;;;;;;;17.55;nan;99866.53;4804999;29;20297;-88
2021/07/22 03:22:42;;;;;;;;;;;;;;;17.39;nan;99865.81;4820949;29;19977;-88
2021/07/22 03:25:16;;;;;;;;;;;;;;;17.33;nan;99876.09;4804649;29;20394;-88
2021/07/22 03:28:04;;;;;;;;;;;;;;;17.31;nan;99865.25;4805570;29;19929;-88
2021/07/22 03:30:49;;;;;;;;;;;;;;;17.05;nan;99871.31;4818241;29;19933;-88
2021/07/22 03:33:34;;;;;;;;;;;;;;;17.24;nan;99871.13;4820715;29;20286;-87
2021/07/22 03:36:21;;;;;;;;;;;;;;;17.46;nan;99863.59;4788082;29;19935;-88
2021/07/22 03:39:05;;;;;;;;;;;;;;;17.47;nan;99862.38;4819053;29;19929;-88
2021/07/22 03:41:35;;;;;;;;;;;;;;;17.47;nan;99868.03;4801810;29;19951;-89
2021/07/22 03:44:13;;;;;;;;;;;;;;;17.48;nan;99861.13;4802259;29;19936;-88
2021/07/22 03:46:40;;;;;;;;;;;;;;;17.47;nan;99864.41;4799794;29;20413;-88
2021/07/22 03:49:10;;;;;;;;;;;;;;;17.49;nan;99864.75;4775588;29;19981;-88
2021/07/22 03:51:37;;;;;;;;;;;;;;;17.42;nan;99859.25;4805124;29;19933;-87
2021/07/22 03:54:05;;;;;;;;;;;;;;;17.29;nan;99862.09;4820540;29;19933;-87
2021/07/22 03:56:33;;;;;;;;;;;;;;;17.10;nan;99871.53;4805031;29;19929;-87
2021/07/22 03:59:18;;;;;;;;;;;;;;;16.94;nan;99873.63;4805308;29;19929;-87
2021/07/22 04:01:47;;;;;;;;;;;;;;;16.79;nan;99872.47;4820407;29;19929;-87
2021/07/22 04:04:34;;;;;;;;;;;;;;;16.76;nan;99881.81;4802859;29;19933;-87
2021/07/22 04:07:01;;;;;;;;;;;;;;;16.99;nan;99876.72;4807978;29;19929;-87
2021/07/22 04:09:53;;;;;;;;;;;;;;;17.11;nan;99872.34;4779872;30;20432;-88
2021/07/22 04:12:26;;;;;;;;;;;;;;;17.17;nan;99865.69;4774450;30;20432;-87
2021/07/22 04:15:09;;;;;;;;;;;;;;;17.10;nan;99865.88;4776934;30;19930;-86
2021/07/22 04:17:57;;;;;;;;;;;;;;;17.08;nan;99865.56;4787706;29;19933;-87
2021/07/22 04:20:44;;;;;;;;;;;;;;;17.03;nan;99860.47;4777652;29;19986;-87
2021/07/22 04:23:31;;;;;;;;;;;;;;;16.45;nan;99869.41;4789682;29;19937;-87
2021/07/22 04:26:15;;;;;;;;;;;;;;;16.39;nan;99868.31;4802213;29;19929;-87
2021/07/22 04:28:53;;;;;;;;;;;;;;;16.34;nan;99868.84;4774596;30;19933;-87
2021/07/22 04:31:22;;;;;;;;;;;;;;;16.49;nan;99876.53;4776638;29;19937;-87
2021/07/22 04:34:18;;;;;;;;;;;;;;;16.61;nan;99869.34;4762878;30;19941;-87
2021/07/22 04:37:06;;;;;;;;;;;;;;;16.91;nan;99869.69;4756666;30;19930;-87
2021/07/22 04:40:08;;;;;;;;;;;;;;;17.07;nan;99868.84;4714569;30;19941;-87
2021/07/22 04:42:56;;;;;;;;;;;;;;;17.18;nan;99860.81;4700982;30;19938;-87
2021/07/22 04:45:41;;;;;;;;;;;;;;;17.22;nan;99867.16;4679476;30;19931;-87
2021/07/22 04:48:29;;;;;;;;;;;;;;;17.28;nan;99859.72;4715608;30;19931;-87
2021/07/22 04:51:17;;;;;;;;;;;;;;;17.33;nan;99864.78;4701119;30;19931;-87
2021/07/22 04:53:52;;;;;;;;;;;;;;;17.35;nan;99853.84;4686779;30;19931;-87
2021/07/22 04:56:20;;;;;;;;;;;;;;;17.42;nan;99853.63;4696949;30;19931;-87
2021/07/22 04:58:48;;;;;;;;;;;;;;;16.98;nan;99865.88;4716584;30;19981;-87
2021/07/22 05:01:25;;;;;;;;;;;;;;;17.10;nan;99862.28;4697255;30;19990;-87
2021/07/22 05:03:53;;;;;;;;;;;;;;;17.02;nan;99863.72;4720203;30;19931;-88
2021/07/22 05:06:26;;;;;;;;;;;;;;;17.00;nan;99855.72;4722718;30;20384;-87
2021/07/22 05:09:09;;;;;;;;;;;;;;;17.29;nan;99864.13;4672945;30;19938;-88
2021/07/22 05:12:03;;;;;;;;;;;;;;;17.46;nan;99860.00;4714604;30;20398;-85
2021/07/22 05:14:50;;;;;;;;;;;;;;;17.71;nan;99871.28;4692307;29;19931;-87
2021/07/22 05:17:28;;;;;;;;;;;;;;;17.75;nan;99860.69;4835090;29;19935;-83
2021/07/22 05:20:14;;;;;;;;;;;;;;;17.82;nan;99861.25;4848950;29;19932;-88
2021/07/22 05:22:52;;;;;;;;;;;;;;;17.67;nan;99864.97;4830039;29;19935;-89
2021/07/22 05:25:55;;;;;;;;;;;;;;;17.63;nan;99865.06;4837245;29;19932;-89
2021/07/22 05:28:38;;;;;;;;;;;;;;;17.73;nan;99868.81;4842428;29;20291;-89
2021/07/22 05:31:13;;;;;;;;;;;;;;;17.60;nan;99865.19;4829833;29;19935;-89
2021/07/22 05:34:02;;;;;;;;;;;;;;;17.63;nan;99876.38;4833957;29;19928;-89
2021/07/22 05:36:40;;;;;;;;;;;;;;;17.91;nan;99874.69;4830450;29;20309;-89
2021/07/22 05:39:23;;;;;;;;;;;;;;;17.56;nan;99870.97;4835095;29;20343;-89
2021/07/22 05:41:50;;;;;;;;;;;;;;;17.43;nan;99880.63;4848320;29;19928;-89
2021/07/22 05:44:17;;;;;;;;;;;;;;;17.45;nan;99883.81;4836453;29;20597;-89
2021/07/22 05:47:10;;;;;;;;;;;;;;;17.35;nan;99887.75;4843565;29;19932;-89
2021/07/22 05:49:37;;;;;;;;;;;;;;;17.81;nan;99887.13;4818866;29;19928;-89
2021/07/22 05:52:06;;;;;;;;;;;;;;;18.35;nan;99896.22;4814986;29;19929;-89
2021/07/22 05:54:33;;;;;;;;;;;;;;;18.69;nan;99884.16;4850596;29;19929;-89
2021/07/22 05:57:00;;;;;;;;;;;;;;;18.95;nan;99877.91;4843271;29;21357;-89
2021/07/22 05:59:28;;;;;;;;;;;;;;;19.13;nan;99877.25;4837119;29;19928;-89
2021/07/22 06:01:56;;;;;;;;;;;;;;;19.23;nan;99878.88;4843633;29;20376;-89
2021/07/22 06:04:23;;;;;;;;;;;;;;;19.43;nan;99882.19;4803164;29;19928;-89
2021/07/22 06:06:50;;;;;;;;;;;;;;;19.57;nan;99876.75;4836784;29;19929;-88
2021/07/22 06:09:17;;;;;;;;;;;;;;;19.72;nan;99873.34;4844155;29;20308;-89
2021/07/22 06:11:45;;;;;;;;;;;;;;;19.83;nan;99871.66;4842909;29;19933;-89
2021/07/22 06:14:12;;;;;;;;;;;;;;;20.01;nan;99866.03;4840562;29;19956;-89
2021/07/22 06:16:39;;;;;;;;;;;;;;;20.11;nan;99866.84;4842853;29;20409;-89
2021/07/22 06:19:09;;;;;;;;;;;;;;;20.27;nan;99875.91;4795317;29;19980;-89
2021/07/22 06:21:37;;;;;;;;;;;;;;;20.31;nan;99867.25;4827804;29;19934;-89
2021/07/22 06:24:06;;;;;;;;;;;;;;;20.31;nan;99873.69;4798210;29;19928;-89
2021/07/22 06:26:35;;;;;;;;;;;;;;;20.53;nan;99876.41;4827409;29;19932;-89
2021/07/22 06:29:03;;;;;;;;;;;;;;;20.71;nan;99880.06;4812656;29;19928;-89
2021/07/22 06:31:30;;;;;;;;;;;;;;;20.82;nan;99871.06;4842738;29;20441;-87
2021/07/22 06:33:57;;;;;;;;;;;;;;;20.81;nan;99866.66;4834798;29;20376;-85
2021/07/22 06:36:25;;;;;;;;;;;;;;;21.03;nan;99873.78;4834309;29;19932;-85
2021/07/22 06:39:03;;;;;;;;;;;;;;;21.10;nan;99861.28;4844071;29;19928;-85
2021/07/22 06:41:30;;;;;;;;;;;;;;;20.93;nan;99865.72;4859290;29;20414;-82
2021/07/22 06:44:01;;;;;;;;;;;;;;;21.13;nan;99866.00;4818221;29;19980;-81
2021/07/22 06:46:30;;;;;;;;;;;;;;;20.98;nan;99859.41;4827378;29;19928;-84
2021/07/22 06:48:58;;;;;;;;;;;;;;;20.95;nan;99866.03;4842501;29;19929;-84
2021/07/22 06:51:25;;;;;;;;;;;;;;;21.02;nan;99868.56;4842186;29;19972;-84
2021/07/22 06:53:54;;;;;;;;;;;;;;;21.31;nan;99863.94;4839273;29;19985;-84
2021/07/22 06:56:21;;;;;;;;;;;;;;;21.96;nan;99851.84;4840602;29;19928;-84
2021/07/22 06:58:48;;;;;;;;;;;;;;;22.85;nan;99851.75;4822595;29;20304;-82
2021/07/22 07:01:15;;;;;;;;;;;;;;;24.17;nan;99845.47;4825454;29;19936;-82
2021/07/22 07:03:43;;;;;;;;;;;;;;;25.48;nan;99836.16;4811859;29;19937;-83
2021/07/22 07:06:10;;;;;;;;;;;;;;;26.47;nan;99813.16;4843054;29;19929;-82
2021/07/22 07:08:38;;;;;;;;;;;;;;;27.30;nan;99810.53;4819134;29;19932;-80
2021/07/22 07:11:08;;;;;;;;;;;;;;;28.74;nan;99800.38;4853161;29;19928;-80
2021/07/22 07:13:35;;;;;;;;;;;;;;;29.58;nan;99792.75;4822837;29;19932;-80
2021/07/22 07:16:03;;;;;;;;;;;;;;;30.48;nan;99788.44;4837006;29;19935;-80
2021/07/22 07:18:31;;;;;;;;;;;;;;;30.75;nan;99788.09;4845575;29;19929;-78
2021/07/22 07:21:04;;;;;;;;;;;;;;;30.53;nan;99784.72;4846607;29;20266;-81
2021/07/22 07:23:32;;;;;;;;;;;;;;;31.35;nan;99780.66;4818481;29;19928;-82
2021/07/22 07:26:01;;;;;;;;;;;;;;;31.47;nan;99774.69;4841208;29;19981;-78
2021/07/22 07:28:29;;;;;;;;;;;;;;;32.44;nan;99770.56;4839139;29;19940;-79
2021/07/22 07:30:57;;;;;;;;;;;;;;;32.49;nan;99766.75;4837804;29;19928;-80
2021/07/22 07:33:24;;;;;;;;;;;;;;;32.61;nan;99762.28;4841288;29;19952;-79
2021/07/22 07:35:51;;;;;;;;;;;;;;;33.18;nan;99757.56;4818455;29;19939;-77
2021/07/22 07:38:19;;;;;;;;;;;;;;;32.52;nan;99765.63;4836075;29;19947;-78
2021/07/22 07:40:46;;;;;;;;;;;;;;;33.00;nan;99761.44;4852267;29;19931;-77
2021/07/22 07:43:17;;;;;;;;;;;;;;;31.09;nan;99762.44;4862759;29;19935;-78
2021/07/22 07:45:47;;;;;;;;;;;;;;;32.26;nan;99762.72;4862571;29;19935;-78
2021/07/22 07:48:14;;;;;;;;;;;;;;;31.97;nan;99763.84;4854151;29;20369;-80
2021/07/22 07:50:41;;;;;;;;;;;;;;;32.92;nan;99764.25;4862175;29;19928;-79
2021/07/22 07:53:16;;;;;;;;;;;;;;;33.48;nan;99763.69;4853269;29;19928;-80
2021/07/22 07:55:44;;;;;;;;;;;;;;;32.61;nan;99761.50;4848007;29;20303;-80
2021/07/22 07:58:11;;;;;;;;;;;;;;;32.94;nan;99772.38;4858189;29;19935;-79
2021/07/22 08:00:39;;;;;;;;;;;;;;;33.72;nan;99766.22;4861891;29;19929;-79
2021/07/22 08:03:15;;;;;;;;;;;;;;;33.11;nan;99763.28;4852493;29;19962;-80
2021/07/22 08:05:42;;;;;;;;;;;;;;;34.05;nan;99770.38;4826075;29;19929;-80
2021/07/22 08:08:09;;;;;;;;;;;;;;;34.44;nan;99772.97;4842179;29;20552;-78
2021/07/22 08:10:40;;;;;;;;;;;;;;;34.66;nan;99770.19;4860085;29;19932;-81
2021/07/22 08:13:08;;;;;;;;;;;;;;;35.07;nan;99760.50;4854651;29;19947;-81
2021/07/22 08:15:36;;;;;;;;;;;;;;;34.35;nan;99762.63;4836327;29;19938;-82
2021/07/22 08:18:04;;;;;;;;;;;;;;;34.27;nan;99758.16;4854502;29;20506;-81
2021/07/22 08:20:31;;;;;;;;;;;;;;;34.92;nan;99762.56;4844667;29;19952;-81
2021/07/22 08:22:58;;;;;;;;;;;;;;;33.79;nan;99753.16;4839156;29;19928;-80
2021/07/22 08:25:25;;;;;;;;;;;;;;;34.24;nan;99765.88;4844910;29;19929;-80
2021/07/22 08:27:52;;;;;;;;;;;;;;;35.14;nan;99765.53;4832332;29;19928;-81
2021/07/22 08:30:19;;;;;;;;;;;;;;;35.30;nan;99755.53;4851014;29;19928;-81
2021/07/22 08:32:47;;;;;;;;;;;;;;;34.42;nan;99753.25;4847870;29;19939;-80
2021/07/22 08:35:14;;;;;;;;;;;;;;;35.36;nan;99756.13;4835930;29;19984;-80
2021/07/22 08:37:43;;;;;;;;;;;;;;;35.46;nan;99757.09;4849393;29;19936;-80
2021/07/22 08:40:11;;;;;;;;;;;;;;;35.04;nan;99746.34;4861057;29;19928;-80
2021/07/22 08:42:39;;;;;;;;;;;;;;;35.64;nan;99749.38;4846786;29;19936;-81
2021/07/22 08:45:07;;;;;;;;;;;;;;;35.89;nan;99748.25;4842926;29;19935;-80
2021/07/22 08:47:35;;;;;;;;;;;;;;;36.05;nan;99743.94;4844576;29;19928;-80
2021/07/22 08:50:06;;;;;;;;;;;;;;;35.91;nan;99751.31;4844533;29;19929;-81
2021/07/22 08:52:34;;;;;;;;;;;;;;;35.50;nan;99740.09;4844526;29;19929;-80
2021/07/22 08:55:01;;;;;;;;;;;;;;;33.00;nan;99735.38;4825934;29;19933;-77
2021/07/22 08:57:32;;;;;;;;;;;;;;;32.45;nan;99739.50;4827246;29;19928;-78
2021/07/22 09:00:05;;;;;;;;;;;;;;;32.56;nan;99751.63;4836602;29;19928;-78
2021/07/22 09:02:34;;;;;;;;;;;;;;;32.65;nan;99754.06;4848777;29;19928;-77
2021/07/22 09:05:04;;;;;;;;;;;;;;;33.26;nan;99746.88;4842879;29;19928;-78
2021/07/22 09:07:31;;;;;;;;;;;;;;;33.49;nan;99742.06;4840284;29;19929;-78
2021/07/22 09:10:07;;;;;;;;;;;;;;;34.26;nan;99747.91;4836751;29;19935;-78
2021/07/22 09:12:42;;;;;;;;;;;;;;;34.37;nan;99738.88;4842507;29;19933;-78
2021/07/22 09:15:11;;;;;;;;;;;;;;;33.94;nan;99744.59;4844257;29;20577;-78
2021/07/22 09:17:58;;;;;;;;;;;;;;;33.35;nan;99736.91;4842653;29;20389;-77
2021/07/22 09:20:26;;;;;;;;;;;;;;;33.80;nan;99748.91;4843400;29;19928;-78
2021/07/22 09:23:02;;;;;;;;;;;;;;;34.15;nan;99739.50;4827606;29;20533;-78
2021/07/22 09:25:38;;;;;;;;;;;;;;;34.54;nan;99737.06;4839993;29;19936;-78
2021/07/22 09:28:05;;;;;;;;;;;;;;;34.92;nan;99737.22;4842312;29;19935;-78
2021/07/22 09:30:33;;;;;;;;;;;;;;;34.48;nan;99738.56;4843027;29;20322;-78
2021/07/22 09:33:00;;;;;;;;;;;;;;;34.07;nan;99732.88;4842454;29;19929;-77
2021/07/22 09:35:29;;;;;;;;;;;;;;;33.27;nan;99733.13;4844205;29;19934;-77
2021/07/22 09:37:57;;;;;;;;;;;;;;;32.59;nan;99736.03;4840640;29;19958;-78
2021/07/22 09:40:25;;;;;;;;;;;;;;;32.12;nan;99737.28;4844236;29;19928;-78
2021/07/22 09:42:56;;;;;;;;;;;;;;;32.30;nan;99742.94;4844168;29;19950;-78
2021/07/22 09:45:24;;;;;;;;;;;;;;;32.46;nan;99741.06;4844027;29;19928;-78
2021/07/22 09:47:54;;;;;;;;;;;;;;;32.61;nan;99738.38;4842800;29;20401;-78
2021/07/22 09:50:22;;;;;;;;;;;;;;;32.41;nan;99730.38;4839690;29;19977;-78
2021/07/22 09:53:05;;;;;;;;;;;;;;;32.31;nan;99735.81;4835711;29;19928;-78
2021/07/22 09:55:33;;;;;;;;;;;;;;;31.49;nan;99746.06;4852954;29;20397;-78
2021/07/22 09:58:00;;;;;;;;;;;;;;;30.51;nan;99741.22;4846827;29;19935;-78
2021/07/22 10:00:29;;;;;;;;;;;;;;;29.90;nan;99738.28;4854897;29;19933;-79
2021/07/22 10:03:01;;;;;;;;;;;;;;;29.81;nan;99742.28;4851433;29;19948;-79
2021/07/22 10:05:29;;;;;;;;;;;;;;;29.80;nan;99740.72;4827233;29;20473;-80
2021/07/22 10:07:57;;;;;;;;;;;;;;;29.82;nan;99743.84;4839920;29;19929;-79
2021/07/22 10:10:26;;;;;;;;;;;;;;;29.51;nan;99742.31;4825476;29;20289;-79
2021/07/22 10:12:57;;;;;;;;;;;;;;;29.40;nan;99748.16;4843438;29;19929;-78
2021/07/22 10:15:29;;;;;;;;;;;;;;;29.39;nan;99752.34;4825564;29;20071;-79
2021/07/22 10:17:56;;;;;;;;;;;;;;;29.66;nan;99751.34;4841126;29;19928;-81
2021/07/22 10:23:44;;;;;;;;;;;;;;;29.29;nan;99742.47;5058382;23;20056;-76
2021/07/22 10:26:11;;;;;;;;;;;;;;;29.68;nan;99740.06;4885755;29;19942;-78
2021/07/22 10:28:39;;;;;;;;;;;;;;;29.42;nan;99738.97;4870637;29;19986;-79
2021/07/22 10:31:07;;;;;;;;;;;;;;;29.83;nan;99750.38;4885930;29;20375;-78
2021/07/22 10:33:35;;;;;;;;;;;;;;;29.42;nan;99734.00;4888894;29;19927;-78
2021/07/22 10:36:03;;;;;;;;;;;;;;;29.88;nan;99738.03;4875968;29;19932;-81
2021/07/22 10:38:44;;;;;;;;;;;;;;;30.49;nan;99744.63;4864911;29;20375;-81
2021/07/22 10:41:29;;;;;;;;;;;;;;;31.08;nan;99726.25;4861545;29;19998;-81
2021/07/22 10:43:57;;;;;;;;;;;;;;;30.82;nan;99726.91;4860011;29;19991;-81
2021/07/22 10:46:44;;;;;;;;;;;;;;;30.99;nan;99720.88;4884389;29;19931;-81
2021/07/22 10:49:13;;;;;;;;;;;;;;;31.06;nan;99723.13;4882772;29;19982;-82
2021/07/22 10:51:40;;;;;;;;;;;;;;;30.59;nan;99742.16;4877340;29;20054;-79
2021/07/22 10:54:07;;;;;;;;;;;;;;;30.77;nan;99730.66;4881469;29;19935;-80
2021/07/22 10:56:34;;;;;;;;;;;;;;;31.00;nan;99720.34;4867321;29;19928;-82
2021/07/22 10:59:01;;;;;;;;;;;;;;;30.81;nan;99727.47;4860849;29;19928;-87
2021/07/22 11:01:41;;;;;;;;;;;;;;;30.85;nan;99727.91;4857651;29;20396;-86
2021/07/22 11:04:08;;;;;;;;;;;;;;;30.99;nan;99729.53;4870051;29;19928;-85
2021/07/22 11:06:54;;;;;;;;;;;;;;;30.95;nan;99734.84;4857614;29;19928;-85
2021/07/22 11:09:40;;;;;;;;;;;;;;;31.08;nan;99718.34;4855480;29;20505;-86
2021/07/22 11:12:08;;;;;;;;;;;;;;;30.53;nan;99718.38;4860145;29;19938;-86
2021/07/22 11:14:36;;;;;;;;;;;;;;;30.30;nan;99714.22;4844933;29;20377;-86
2021/07/22 11:17:03;;;;;;;;;;;;;;;30.21;nan;99729.03;4876529;29;20554;-86
2021/07/22 11:19:30;;;;;;;;;;;;;;;30.40;nan;99730.59;4860327;29;19952;-85
2021/07/22 11:21:57;;;;;;;;;;;;;;;30.42;nan;99715.66;4857684;29;20392;-85
2021/07/22 11:24:27;;;;;;;;;;;;;;;30.05;nan;99719.22;4856986;29;19949;-85
2021/07/22 11:26:55;;;;;;;;;;;;;;;28.99;nan;99712.88;4876940;29;19927;-86
2021/07/22 11:29:23;;;;;;;;;;;;;;;29.07;nan;99715.97;4860545;29;19935;-85
2021/07/22 11:31:51;;;;;;;;;;;;;;;29.44;nan;99707.56;4862778;29;19928;-85
2021/07/22 11:34:27;;;;;;;;;;;;;;;29.83;nan;99699.31;4856555;29;20052;-82
2021/07/22 11:36:55;;;;;;;;;;;;;;;29.82;nan;99703.53;4883406;29;19931;-82
2021/07/22 11:39:35;;;;;;;;;;;;;;;29.78;nan;99700.94;4867320;29;19950;-81
2021/07/22 11:42:06;;;;;;;;;;;;;;;30.17;nan;99696.81;4852108;29;19927;-80
2021/07/22 11:45:22;;;;;;;;;;;;;;;30.71;nan;99697.41;4854797;29;19939;-78
2021/07/22 11:48:22;;;;;;;;;;;;;;;31.17;nan;99697.72;4857288;29;19920;-80
2021/07/22 11:51:02;;;;;;;;;;;;;;;31.56;nan;99679.75;4848213;29;19935;-80
2021/07/22 11:53:32;;;;;;;;;;;;;;;30.79;nan;99678.19;4847899;29;19932;-81
2021/07/22 11:56:25;;;;;;;;;;;;;;;31.20;nan;99687.22;4878677;29;19935;-80
2021/07/22 11:58:55;;;;;;;;;;;;;;;32.00;nan;99669.47;4841697;29;19928;-81
2021/07/22 12:02:09;;;;;;;;;;;;;;;31.65;nan;99678.53;4878573;29;19955;-82
2021/07/22 12:04:51;;;;;;;;;;;;;;;31.71;nan;99679.22;4845411;29;20357;-81
2021/07/22 12:07:25;;;;;;;;;;;;;;;31.80;nan;99673.78;4855240;29;19935;-81
2021/07/22 12:09:53;;;;;;;;;;;;;;;31.57;nan;99674.78;4854976;29;20361;-81
2021/07/22 12:12:24;;;;;;;;;;;;;;;31.23;nan;99671.69;4869996;29;20402;-81
2021/07/22 12:15:01;;;;;;;;;;;;;;;31.01;nan;99675.72;4860901;29;19932;-80
2021/07/22 12:17:28;;;;;;;;;;;;;;;30.97;nan;99681.03;4893942;29;20379;-81
2021/07/22 12:19:56;;;;;;;;;;;;;;;30.93;nan;99674.78;4848048;29;19928;-81
2021/07/22 12:22:25;;;;;;;;;;;;;;;30.85;nan;99673.09;4878980;29;20020;-80
2021/07/22 12:25:01;;;;;;;;;;;;;;;30.73;nan;99672.44;4882341;29;19927;-80
2021/07/22 12:27:30;;;;;;;;;;;;;;;30.66;nan;99675.19;4866439;29;19950;-80
2021/07/22 12:29:58;;;;;;;;;;;;;;;30.61;nan;99671.06;4883275;29;19928;-80
2021/07/22 12:32:28;;;;;;;;;;;;;;;30.70;nan;99679.31;4866145;29;19934;-80
2021/07/22 12:34:56;;;;;;;;;;;;;;;30.98;nan;99667.38;4852468;29;19932;-80
2021/07/22 12:37:42;;;;;;;;;;;;;;;30.99;nan;99671.84;4835631;29;20387;-80
2021/07/22 12:40:09;;;;;;;;;;;;;;;30.68;nan;99681.19;4850656;29;19932;-80
2021/07/22 12:42:36;;;;;;;;;;;;;;;30.33;nan;99675.66;4882999;29;19928;-80
2021/07/22 12:45:13;;;;;;;;;;;;;;;29.96;nan;99664.09;4882246;29;19935;-80
2021/07/22 12:47:46;;;;;;;;;;;;;;;29.74;nan;99668.78;4866650;29;19980;-80
2021/07/22 12:50:45;;;;;;;;;;;;;;;29.85;nan;99661.34;4882521;29;19928;-80
2021/07/22 12:53:18;;;;;;;;;;;;;;;30.18;nan;99652.28;4855432;29;19928;-80
2021/07/22 12:55:45;;;;;;;;;;;;;;;30.79;nan;99655.09;4850083;29;19928;-80
2021/07/22 12:58:26;;;;;;;;;;;;;;;31.36;nan;99632.09;4881423;29;19928;-80
2021/07/22 13:01:00;;;;;;;;;;;;;;;31.57;nan;99631.44;4882514;29;19927;-80
2021/07/22 13:03:28;;;;;;;;;;;;;;;31.64;nan;99622.91;4865745;29;19951;-80
2021/07/22 13:05:55;;;;;;;;;;;;;;;30.81;nan;99643.81;4865599;29;19943;-80
2021/07/22 13:08:22;;;;;;;;;;;;;;;30.04;nan;99644.84;4881445;29;19927;-80
2021/07/22 13:10:52;;;;;;;;;;;;;;;30.29;nan;99643.50;4851793;29;19934;-80
2021/07/22 13:13:19;;;;;;;;;;;;;;;30.21;nan;99642.56;4870711;29;20025;-80
2021/07/22 13:15:46;;;;;;;;;;;;;;;30.46;nan;99635.41;4864877;29;19934;-80
2021/07/22 13:18:13;;;;;;;;;;;;;;;29.93;nan;99639.25;4882133;29;19932;-80
2021/07/22 13:20:45;;;;;;;;;;;;;;;29.89;nan;99625.16;4850222;29;19927;-80
2021/07/22 13:23:12;;;;;;;;;;;;;;;30.33;nan;99621.69;4849875;29;19932;-80
2021/07/22 13:25:39;;;;;;;;;;;;;;;30.05;nan;99617.63;4881816;29;19931;-81
2021/07/22 13:28:06;;;;;;;;;;;;;;;30.17;nan;99613.25;4883888;29;19935;-81
2021/07/22 13:30:34;;;;;;;;;;;;;;;30.39;nan;99628.16;4872451;29;19936;-81
2021/07/22 13:33:01;;;;;;;;;;;;;;;30.82;nan;99613.63;4852833;29;19935;-81
2021/07/22 13:35:34;;;;;;;;;;;;;;;30.99;nan;99612.00;4881820;29;20399;-80